createdAt,value
2019-02-15T00:02:03.116Z,7.47
2019-02-15T00:04:31.560Z,7.50
2019-02-15T00:06:59.958Z,8.20
2019-02-15T00:09:28.353Z,7.40
2019-02-15T00:11:56.781Z,8.13
2019-02-15T00:14:25.173Z,8.13
2019-02-15T00:16:53.607Z,7.87
2019-02-15T00:19:23.868Z,8.17
2019-02-15T00:21:52.259Z,7.90
2019-02-15T00:24:20.656Z,7.37
2019-02-15T00:26:49.365Z,7.80
2019-02-15T00:29:17.762Z,8.70
2019-02-15T00:31:46.240Z,7.73
2019-02-15T00:34:14.665Z,7.43
2019-02-15T00:36:43.065Z,7.87
2019-02-15T00:39:11.464Z,8.07
2019-02-15T00:41:39.889Z,8.50
2019-02-15T00:44:08.350Z,8.30
2019-02-15T00:46:44.225Z,9.00
2019-02-15T00:49:13.788Z,8.20
2019-02-15T00:51:44.121Z,8.23
2019-02-15T00:54:14.194Z,7.97
2019-02-15T00:57:00.530Z,8.10
2019-02-15T00:59:30.560Z,8.67
2019-02-15T01:02:03.597Z,9.33
2019-02-15T01:04:39.591Z,9.23
2019-02-15T01:07:25.383Z,9.57
2019-02-15T01:09:58.390Z,9.60
2019-02-15T01:12:28.421Z,9.03
2019-02-15T01:14:56.864Z,8.27
2019-02-15T01:17:25.257Z,8.60
2019-02-15T01:19:53.644Z,9.07
2019-02-15T01:22:22.223Z,8.50
2019-02-15T01:24:50.694Z,8.80
2019-02-15T01:27:20.724Z,9.40
2019-02-15T01:30:02.623Z,8.33
2019-02-15T01:32:32.654Z,9.27
2019-02-15T01:35:02.675Z,9.00
2019-02-15T01:37:32.754Z,8.07
2019-02-15T01:40:02.794Z,8.83
2019-02-15T01:42:41.688Z,8.53
2019-02-15T01:45:17.720Z,8.67
2019-02-15T01:47:46.158Z,8.40
2019-02-15T01:50:14.597Z,8.60
2019-02-15T01:52:43.001Z,8.30
2019-02-15T01:55:11.401Z,8.43
2019-02-15T01:57:39.841Z,8.57
2019-02-15T02:00:12.384Z,8.40
2019-02-15T02:02:40.780Z,7.97
2019-02-15T02:05:09.306Z,8.30
2019-02-15T02:07:37.929Z,7.83
2019-02-15T02:10:10.804Z,8.30
2019-02-15T02:12:39.204Z,7.80
2019-02-15T02:15:09.304Z,8.27
2019-02-15T02:17:37.730Z,8.40
2019-02-15T02:20:08.665Z,7.70
2019-02-15T02:22:37.179Z,8.00
2019-02-15T02:25:07.034Z,8.83
2019-02-15T02:27:35.436Z,8.23
2019-02-15T02:30:06.502Z,7.57
2019-02-15T02:32:34.939Z,7.80
2019-02-15T02:35:03.979Z,8.17
2019-02-15T02:37:32.368Z,7.50
2019-02-15T02:40:00.926Z,7.23
2019-02-15T02:42:29.314Z,7.83
2019-02-15T02:44:57.716Z,7.83
2019-02-15T02:47:26.138Z,7.60
2019-02-15T02:49:54.530Z,7.67
2019-02-15T02:52:22.927Z,7.87
2019-02-15T02:54:51.366Z,7.70
2019-02-15T02:57:19.793Z,7.60
2019-02-15T02:59:48.185Z,7.77
2019-02-15T03:02:16.624Z,7.87
2019-02-15T03:04:45.024Z,7.63
2019-02-15T03:07:13.429Z,7.80
2019-02-15T03:09:41.856Z,8.00
2019-02-15T03:12:10.244Z,7.60
2019-02-15T03:14:38.633Z,7.67
2019-02-15T03:17:07.217Z,7.83
2019-02-15T03:19:35.623Z,8.43
2019-02-15T03:22:04.021Z,8.53
2019-02-15T03:24:32.453Z,8.20
2019-02-15T03:27:00.845Z,8.17
2019-02-15T03:29:29.232Z,8.00
2019-02-15T03:31:57.678Z,7.83
2019-02-15T03:34:26.079Z,8.20
2019-02-15T03:36:59.128Z,8.50
2019-02-15T03:39:44.325Z,8.10
2019-02-15T03:42:13.188Z,7.70
2019-02-15T03:44:41.590Z,7.93
2019-02-15T03:47:10.032Z,7.90
2019-02-15T03:49:38.465Z,8.77
2019-02-15T03:52:06.934Z,8.40
2019-02-15T03:54:35.409Z,8.00
2019-02-15T03:57:03.801Z,7.83
2019-02-15T03:59:32.262Z,8.07
2019-02-15T04:02:03.550Z,7.90
2019-02-15T04:04:31.933Z,7.77
2019-02-15T04:07:00.328Z,8.17
2019-02-15T04:09:28.761Z,7.97
2019-02-15T04:11:57.213Z,8.40
2019-02-15T04:14:32.633Z,7.90
2019-02-15T04:16:55.766Z,8.30
2019-02-15T04:19:24.164Z,7.90
2019-02-15T04:21:52.551Z,7.70
2019-02-15T04:24:21.005Z,7.93
2019-02-15T04:26:49.405Z,8.00
2019-02-15T04:29:17.801Z,8.40
2019-02-15T04:31:46.243Z,8.40
2019-02-15T04:34:14.642Z,8.53
2019-02-15T04:36:43.039Z,7.63
2019-02-15T04:39:11.488Z,8.47
2019-02-15T04:41:39.871Z,7.20
2019-02-15T04:44:08.277Z,8.47
2019-02-15T04:46:36.855Z,8.50
2019-02-15T04:49:05.244Z,8.10
2019-02-15T04:51:33.639Z,8.10
2019-02-15T04:54:03.500Z,7.60
2019-02-15T04:56:31.895Z,8.33
2019-02-15T04:59:00.285Z,7.70
2019-02-15T05:01:28.736Z,7.07
2019-02-15T05:03:57.131Z,7.80
2019-02-15T05:06:25.592Z,7.53
2019-02-15T05:08:54.037Z,7.30
2019-02-15T05:11:22.424Z,7.70
2019-02-15T05:13:50.821Z,8.07
2019-02-15T05:16:19.260Z,7.53
2019-02-15T05:18:47.644Z,7.73
2019-02-15T05:21:16.156Z,7.57
2019-02-15T05:23:44.584Z,7.50
2019-02-15T05:26:12.995Z,7.00
2019-02-15T05:28:41.377Z,7.13
2019-02-15T05:31:09.805Z,7.63
2019-02-15T05:33:38.199Z,7.73
2019-02-15T05:36:06.612Z,7.80
2019-02-15T05:38:35.046Z,7.50
2019-02-15T05:41:03.435Z,7.70
2019-02-15T05:43:31.867Z,8.03
2019-02-15T05:46:00.307Z,7.90
2019-02-15T05:48:28.699Z,7.83
2019-02-15T05:50:57.092Z,8.30
2019-02-15T05:53:25.534Z,7.50
2019-02-15T05:55:53.937Z,7.77
2019-02-15T05:58:22.324Z,8.40
2019-02-15T06:00:50.772Z,8.10
2019-02-15T06:03:19.180Z,8.13
2019-02-15T06:05:47.566Z,7.53
2019-02-15T06:08:15.993Z,7.53
2019-02-15T06:10:44.395Z,7.80
2019-02-15T06:13:12.797Z,8.17
2019-02-15T06:15:41.413Z,8.47
2019-02-15T06:18:09.804Z,8.03
2019-02-15T06:20:38.195Z,7.90
2019-02-15T06:23:06.842Z,7.53
2019-02-15T06:25:35.290Z,7.50
2019-02-15T06:28:03.686Z,8.00
2019-02-15T06:30:32.081Z,8.10
2019-02-15T06:33:00.521Z,7.50
2019-02-15T06:35:28.917Z,8.37
2019-02-15T06:37:57.314Z,8.07
2019-02-15T06:40:25.750Z,8.13
2019-02-15T06:42:54.150Z,7.90
2019-02-15T06:45:25.277Z,7.60
2019-02-15T06:47:52.866Z,7.07
2019-02-15T06:50:21.266Z,7.83
2019-02-15T06:52:49.702Z,7.10
2019-02-15T06:55:18.099Z,7.20
2019-02-15T06:57:46.493Z,7.60
2019-02-15T07:00:25.600Z,7.07
2019-02-15T07:02:55.629Z,7.10
2019-02-15T07:05:26.043Z,7.37
2019-02-15T07:07:54.473Z,7.70
2019-02-15T07:10:23.033Z,7.57
2019-02-15T07:12:51.477Z,7.30
2019-02-15T07:15:19.867Z,7.20
2019-02-15T07:17:49.894Z,6.80
2019-02-15T07:20:18.319Z,7.33
2019-02-15T07:22:46.794Z,7.20
2019-02-15T07:25:15.184Z,7.33
2019-02-15T07:27:43.618Z,7.37
2019-02-15T07:30:15.610Z,7.47
2019-02-15T07:32:44.131Z,7.50
2019-02-15T07:35:12.592Z,7.07
2019-02-15T07:37:40.969Z,7.70
2019-02-15T07:40:10.206Z,8.17
2019-02-15T07:42:38.654Z,7.20
2019-02-15T07:45:09.734Z,7.30
2019-02-15T07:47:38.141Z,7.17
2019-02-15T07:50:12.867Z,6.53
2019-02-15T07:52:41.278Z,6.43
2019-02-15T07:55:09.933Z,6.73
2019-02-15T07:57:38.542Z,6.60
2019-02-15T08:00:13.005Z,6.80
2019-02-15T08:02:41.393Z,7.10
2019-02-15T08:05:10.591Z,6.80
2019-02-15T08:07:38.989Z,6.63
2019-02-15T08:10:09.723Z,6.90
2019-02-15T08:12:38.157Z,6.83
2019-02-15T08:15:09.341Z,6.97
2019-02-15T08:17:37.733Z,6.70
2019-02-15T08:20:10.719Z,7.20
2019-02-15T08:22:39.118Z,6.77
2019-02-15T08:25:08.842Z,7.47
2019-02-15T08:27:37.246Z,7.30
2019-02-15T08:30:08.467Z,7.20
2019-02-15T08:32:36.911Z,7.13
2019-02-15T08:35:07.438Z,7.50
2019-02-15T08:37:35.837Z,7.00
2019-02-15T08:40:06.637Z,6.73
2019-02-15T08:42:35.030Z,6.87
2019-02-15T08:45:04.754Z,7.03
2019-02-15T08:47:33.605Z,6.57
2019-02-15T08:50:02.029Z,6.57
2019-02-15T08:52:30.421Z,6.30
2019-02-15T08:54:58.859Z,6.47
2019-02-15T08:57:27.258Z,6.57
2019-02-15T08:59:55.648Z,6.30
2019-02-15T09:02:24.094Z,6.13
2019-02-15T09:04:52.487Z,6.93
2019-02-15T09:07:20.880Z,6.67
2019-02-15T09:09:49.313Z,5.90
2019-02-15T09:12:17.696Z,6.50
2019-02-15T09:14:46.081Z,5.60
2019-02-15T09:17:14.535Z,6.50
2019-02-15T09:19:42.908Z,6.17
2019-02-15T09:22:11.308Z,7.03
2019-02-15T09:24:39.747Z,8.20
2019-02-15T09:27:09.769Z,6.20
2019-02-15T09:29:38.196Z,6.67
2019-02-15T09:32:06.644Z,6.07
2019-02-15T09:34:35.037Z,6.57
2019-02-15T09:37:03.437Z,7.07
2019-02-15T09:39:31.869Z,6.80
2019-02-15T09:42:00.261Z,6.57
2019-02-15T09:44:28.653Z,6.73
2019-02-15T09:46:57.098Z,7.03
2019-02-15T09:49:25.485Z,6.23
2019-02-15T09:51:55.525Z,6.70
2019-02-15T09:54:25.002Z,7.13
2019-02-15T09:56:53.391Z,7.50
2019-02-15T09:59:21.784Z,7.37
2019-02-15T10:01:50.228Z,7.23
2019-02-15T10:04:18.648Z,6.87
2019-02-15T10:06:47.052Z,6.97
2019-02-15T10:09:15.476Z,7.77
2019-02-15T10:11:44.203Z,6.93
2019-02-15T10:14:12.585Z,7.07
2019-02-15T10:16:40.982Z,8.03
2019-02-15T10:19:09.447Z,7.33
2019-02-15T10:21:37.844Z,6.80
2019-02-15T10:24:06.240Z,7.40
2019-02-15T10:26:34.676Z,7.47
2019-02-15T10:29:03.109Z,7.50
2019-02-15T10:31:31.475Z,6.83
2019-02-15T10:34:00.080Z,7.17
2019-02-15T10:36:28.486Z,7.27
2019-02-15T10:38:56.878Z,7.33
2019-02-15T10:41:25.305Z,7.57
2019-02-15T10:43:54.058Z,7.03
2019-02-15T10:46:22.518Z,6.60
2019-02-15T10:48:50.921Z,6.83
2019-02-15T10:51:19.376Z,6.53
2019-02-15T10:53:47.770Z,6.43
2019-02-15T10:56:16.237Z,6.50
2019-02-15T10:58:44.678Z,6.30
2019-02-15T11:01:13.077Z,6.37
2019-02-15T11:03:41.473Z,6.60
2019-02-15T11:06:10.142Z,6.70
2019-02-15T11:08:38.546Z,6.40
2019-02-15T11:11:06.939Z,6.67
2019-02-15T11:13:35.371Z,6.60
2019-02-15T11:16:03.771Z,6.50
2019-02-15T11:18:32.204Z,6.63
2019-02-15T11:21:00.596Z,6.90
2019-02-15T11:23:29.006Z,7.10
2019-02-15T11:25:57.441Z,6.57
2019-02-15T11:28:25.840Z,7.20
2019-02-15T11:30:54.286Z,7.40
2019-02-15T11:33:22.695Z,7.73
2019-02-15T11:35:51.304Z,6.77
2019-02-15T11:38:19.888Z,6.87
2019-02-15T11:40:48.282Z,6.50
2019-02-15T11:43:16.685Z,6.63
2019-02-15T11:45:45.156Z,7.27
2019-02-15T11:48:13.548Z,7.07
2019-02-15T11:50:41.942Z,6.60
2019-02-15T11:53:10.803Z,7.00
2019-02-15T11:55:39.194Z,6.53
2019-02-15T11:58:07.598Z,6.20
2019-02-15T12:00:36.883Z,6.30
2019-02-15T12:03:05.317Z,6.40
2019-02-15T12:05:33.717Z,5.83
2019-02-15T12:08:02.143Z,5.90
2019-02-15T12:10:30.585Z,6.33
2019-02-15T12:12:58.978Z,5.73
2019-02-15T12:15:27.380Z,5.90
2019-02-15T12:17:55.987Z,5.90
2019-02-15T12:20:24.380Z,5.33
2019-02-15T12:22:52.764Z,5.77
2019-02-15T12:25:21.348Z,5.30
2019-02-15T12:27:49.735Z,5.50
2019-02-15T12:30:18.379Z,5.97
2019-02-15T12:32:46.809Z,5.37
2019-02-15T12:35:15.205Z,5.37
2019-02-15T12:37:43.599Z,5.17
2019-02-15T12:40:12.469Z,5.20
2019-02-15T12:42:40.872Z,5.20
2019-02-15T12:45:13.872Z,4.80
2019-02-15T12:47:42.362Z,4.93
2019-02-15T12:50:18.661Z,4.77
2019-02-15T12:52:47.104Z,4.90
2019-02-15T12:55:15.587Z,4.40
2019-02-15T12:57:43.983Z,4.90
2019-02-15T13:00:15.032Z,4.50
2019-02-15T13:02:43.498Z,4.20
2019-02-15T13:05:12.631Z,4.00
2019-02-15T13:07:41.061Z,4.20
2019-02-15T13:10:12.637Z,4.50
2019-02-15T13:12:41.034Z,4.30
2019-02-15T13:15:11.045Z,4.00
2019-02-15T13:17:39.457Z,3.83
2019-02-15T13:20:11.073Z,3.63
2019-02-15T13:22:39.565Z,3.80
2019-02-15T13:25:08.398Z,3.77
2019-02-15T13:27:36.797Z,4.10
2019-02-15T13:30:08.538Z,4.07
2019-02-15T13:32:36.938Z,3.80
2019-02-15T13:35:07.565Z,4.07
2019-02-15T13:37:35.993Z,4.20
2019-02-15T13:40:05.931Z,3.90
2019-02-15T13:42:34.330Z,4.00
2019-02-15T13:45:02.786Z,4.33
2019-02-15T13:47:34.618Z,3.90
2019-02-15T13:50:01.282Z,4.30
2019-02-15T13:52:29.717Z,4.00
2019-02-15T13:54:58.121Z,3.50
2019-02-15T13:57:26.959Z,3.47
2019-02-15T13:59:55.392Z,3.50
2019-02-15T14:02:23.789Z,3.57
2019-02-15T14:04:52.236Z,3.30
2019-02-15T14:07:20.817Z,3.50
2019-02-15T14:09:49.257Z,3.87
2019-02-15T14:12:17.654Z,3.70
2019-02-15T14:14:46.042Z,3.67
2019-02-15T14:17:14.477Z,3.20
2019-02-15T14:19:42.872Z,3.70
2019-02-15T14:22:11.273Z,3.90
2019-02-15T14:24:39.698Z,3.43
2019-02-15T14:27:08.097Z,3.70
2019-02-15T14:29:36.490Z,3.63
2019-02-15T14:32:04.926Z,3.57
2019-02-15T14:34:33.338Z,3.83
2019-02-15T14:37:01.738Z,3.67
2019-02-15T14:39:30.177Z,3.70
2019-02-15T14:41:58.570Z,4.37
2019-02-15T14:44:27.003Z,3.80
2019-02-15T14:46:55.394Z,4.20
2019-02-15T14:49:23.825Z,3.80
2019-02-15T14:51:52.343Z,4.00
2019-02-15T14:54:20.717Z,3.90
2019-02-15T14:56:49.254Z,3.93
2019-02-15T14:59:17.748Z,3.87
2019-02-15T15:01:46.147Z,3.93
2019-02-15T15:04:14.549Z,3.70
2019-02-15T15:06:43.034Z,4.00
2019-02-15T15:11:40.326Z,3.73
2019-02-15T15:14:08.801Z,3.87
2019-02-15T15:16:37.200Z,4.17
2019-02-15T15:19:05.600Z,3.40
2019-02-15T15:21:35.011Z,3.30
2019-02-15T15:24:03.504Z,3.50
2019-02-15T15:26:31.915Z,3.77
2019-02-15T15:29:00.352Z,3.67
2019-02-15T15:31:28.745Z,3.53
2019-02-15T15:33:57.160Z,3.70
2019-02-15T15:36:25.591Z,3.50
2019-02-15T15:38:53.978Z,3.33
2019-02-15T15:41:22.401Z,3.80
2019-02-15T15:43:50.808Z,3.10
2019-02-15T15:46:19.204Z,3.63
2019-02-15T15:48:47.607Z,3.57
2019-02-15T15:51:16.025Z,3.47
2019-02-15T15:53:44.530Z,3.73
2019-02-15T15:56:12.926Z,3.57
2019-02-15T15:58:41.320Z,3.33
2019-02-15T16:01:09.802Z,3.77
2019-02-15T16:03:38.274Z,3.50
2019-02-15T16:06:06.673Z,3.20
2019-02-15T16:08:35.113Z,3.10
2019-02-15T16:11:03.505Z,3.37
2019-02-15T16:13:31.902Z,3.53
2019-02-15T16:16:00.417Z,3.50
2019-02-15T16:18:34.212Z,3.70
2019-02-15T16:20:58.915Z,3.53
2019-02-15T16:23:27.344Z,3.77
2019-02-15T16:25:55.743Z,3.43
2019-02-15T16:28:24.153Z,3.80
2019-02-15T16:30:52.582Z,3.43
2019-02-15T16:33:21.057Z,3.50
2019-02-15T16:35:49.453Z,3.80
2019-02-15T16:38:18.183Z,3.60
2019-02-15T16:40:46.560Z,3.70
2019-02-15T16:43:15.023Z,3.17
2019-02-15T16:45:43.448Z,3.50
2019-02-15T16:48:11.880Z,3.20
2019-02-15T16:50:40.278Z,3.77
2019-02-15T16:53:08.667Z,3.40
2019-02-15T16:55:37.124Z,4.07
2019-02-15T16:58:05.496Z,3.70
2019-02-15T17:00:33.903Z,3.80
2019-02-15T17:03:02.348Z,3.63
2019-02-15T17:05:30.737Z,4.40
2019-02-15T17:07:59.144Z,4.30
2019-02-15T17:10:27.593Z,4.27
2019-02-15T17:12:56.000Z,5.30
2019-02-15T17:15:24.408Z,3.50
2019-02-15T17:17:52.841Z,3.50
2019-02-15T17:20:21.275Z,3.70
2019-02-15T17:22:49.685Z,3.50
2019-02-15T17:25:18.083Z,5.17
2019-02-15T17:27:46.509Z,5.10
2019-02-15T17:30:14.906Z,4.13
2019-02-15T17:32:43.301Z,4.43
2019-02-15T17:35:12.357Z,4.63
2019-02-15T17:37:40.780Z,4.80
2019-02-15T17:40:11.508Z,5.07
2019-02-15T17:42:39.933Z,3.90
2019-02-15T17:45:10.576Z,5.80
2019-02-15T17:47:38.972Z,7.00
2019-02-15T17:50:09.417Z,5.78
2019-02-15T17:52:37.845Z,5.37
2019-02-15T17:55:08.078Z,7.67
2019-02-15T17:57:36.477Z,4.80
2019-02-15T18:00:07.918Z,10.13
2019-02-15T18:02:36.374Z,4.30
2019-02-15T18:05:05.838Z,4.77
2019-02-15T18:07:34.256Z,4.30
2019-02-15T18:10:02.664Z,4.87
2019-02-15T18:12:31.070Z,5.27
2019-02-15T18:14:59.497Z,5.13
2019-02-15T18:17:27.928Z,5.07
2019-02-15T18:19:56.325Z,6.47
2019-02-15T18:22:24.723Z,5.27
2019-02-15T18:24:53.632Z,6.57
2019-02-15T18:27:22.033Z,6.47
2019-02-15T18:29:50.429Z,5.40
2019-02-15T18:32:18.861Z,5.30
2019-02-15T18:34:47.622Z,4.80
2019-02-15T18:37:16.029Z,4.60
2019-02-15T18:39:44.904Z,4.37
2019-02-15T18:42:13.331Z,5.00
2019-02-15T18:44:41.721Z,4.60
2019-02-15T18:47:10.114Z,4.50
2019-02-15T18:49:38.561Z,5.97
2019-02-15T18:52:06.953Z,5.20
2019-02-15T18:54:35.347Z,4.87
2019-02-15T18:57:03.769Z,4.80
2019-02-15T18:59:32.201Z,4.77
2019-02-15T19:02:00.878Z,5.50
2019-02-15T19:04:29.273Z,5.77
2019-02-15T19:06:57.657Z,5.20
2019-02-15T19:09:26.091Z,4.23
2019-02-15T19:11:54.695Z,4.47
2019-02-15T19:14:23.076Z,3.90
2019-02-15T19:16:51.709Z,3.97
2019-02-15T19:19:28.672Z,4.70
2019-02-15T19:21:50.365Z,3.93
2019-02-15T19:24:18.771Z,4.10
2019-02-15T19:26:47.212Z,4.13
2019-02-15T19:29:15.614Z,3.90
2019-02-15T19:31:44.007Z,4.10
2019-02-15T19:34:12.768Z,4.53
2019-02-15T19:36:41.163Z,4.10
2019-02-15T19:39:09.561Z,4.17
2019-02-15T19:41:38.001Z,4.10
2019-02-15T19:44:07.864Z,3.83
2019-02-15T19:46:36.443Z,4.57
2019-02-15T19:49:04.854Z,4.43
2019-02-15T19:51:33.248Z,4.43
2019-02-15T19:54:01.688Z,4.50
2019-02-15T19:56:30.099Z,3.93
2019-02-15T19:58:58.563Z,3.87
2019-02-15T20:01:26.962Z,4.23
2019-02-15T20:03:55.364Z,4.33
2019-02-15T20:06:23.793Z,4.50
2019-02-15T20:08:52.239Z,4.73
2019-02-15T20:11:20.858Z,4.67
2019-02-15T20:13:49.251Z,4.80
2019-02-15T20:16:17.693Z,4.60
2019-02-15T20:18:46.101Z,4.90
2019-02-15T20:21:14.486Z,4.37
2019-02-15T20:23:42.924Z,5.10
2019-02-15T20:26:11.328Z,5.23
2019-02-15T20:28:39.725Z,5.50
2019-02-15T20:31:08.157Z,4.90
2019-02-15T20:33:36.545Z,5.50
2019-02-15T20:36:05.234Z,5.47
2019-02-15T20:38:33.634Z,5.73
2019-02-15T20:41:02.036Z,5.00
2019-02-15T20:43:30.440Z,5.13
2019-02-15T20:45:58.837Z,5.17
2019-02-15T20:48:27.270Z,5.60
2019-02-15T20:50:55.654Z,5.37
2019-02-15T20:53:24.141Z,5.70
2019-02-15T20:55:52.531Z,5.33
2019-02-15T20:58:20.957Z,5.30
2019-02-15T21:00:49.372Z,5.37
2019-02-15T21:03:17.745Z,5.27
2019-02-15T21:05:46.188Z,5.20
2019-02-15T21:08:14.572Z,5.40
2019-02-15T21:10:42.980Z,5.03
2019-02-15T21:13:19.950Z,5.23
2019-02-15T21:15:41.514Z,5.03
2019-02-15T21:18:09.913Z,5.87
2019-02-15T21:20:38.342Z,5.17
2019-02-15T21:23:06.735Z,5.83
2019-02-15T21:25:35.121Z,6.20
2019-02-15T21:28:03.573Z,5.50
2019-02-15T21:30:31.969Z,6.07
2019-02-15T21:33:00.404Z,5.73
2019-02-15T21:35:28.792Z,5.37
2019-02-15T21:37:57.188Z,6.20
2019-02-15T21:40:26.590Z,6.23
2019-02-15T21:42:54.973Z,6.30
2019-02-15T21:45:23.364Z,6.17
2019-02-15T21:47:51.784Z,6.23
2019-02-15T21:50:20.226Z,6.37
2019-02-15T21:52:48.611Z,6.20
2019-02-15T21:55:17.090Z,6.10
2019-02-15T21:57:45.597Z,6.03
2019-02-15T22:00:19.164Z,5.77
2019-02-15T22:02:47.560Z,7.67
2019-02-15T22:05:16.331Z,6.57
2019-02-15T22:07:44.793Z,5.87
2019-02-15T22:10:13.185Z,6.10
2019-02-15T22:12:41.607Z,5.90
2019-02-15T22:15:14.761Z,5.83
2019-02-15T22:17:43.530Z,6.03
2019-02-15T22:20:13.560Z,6.47
2019-02-15T22:22:41.943Z,5.90
2019-02-15T22:25:10.524Z,5.93
2019-02-15T22:27:38.906Z,6.53
2019-02-15T22:30:14.965Z,6.03
2019-02-15T22:32:43.403Z,6.47
2019-02-15T22:35:11.791Z,6.23
2019-02-15T22:37:40.189Z,6.20
2019-02-15T22:40:25.427Z,6.07
2019-02-15T22:42:53.832Z,6.70
2019-02-15T22:45:22.213Z,6.43
2019-02-15T22:47:50.645Z,6.57
2019-02-15T22:50:19.037Z,5.90
2019-02-15T22:52:47.431Z,6.00
2019-02-15T22:55:15.884Z,6.10
2019-02-15T22:57:44.269Z,6.37
2019-02-15T23:00:21.561Z,6.80
2019-02-15T23:02:50.192Z,6.60
2019-02-15T23:05:18.584Z,5.97
2019-02-15T23:07:47.188Z,6.77
2019-02-15T23:10:15.575Z,6.07
2019-02-15T23:12:43.978Z,6.60
2019-02-15T23:15:12.399Z,6.30
2019-02-15T23:17:40.792Z,6.43
2019-02-15T23:20:09.188Z,6.53
2019-02-15T23:22:37.623Z,6.47
2019-02-15T23:25:07.354Z,6.87
2019-02-15T23:27:35.741Z,7.67
2019-02-15T23:30:05.703Z,6.77
2019-02-15T23:32:34.102Z,7.33
2019-02-15T23:35:02.510Z,7.60
2019-02-15T23:37:30.937Z,7.10
2019-02-15T23:39:59.345Z,7.00
2019-02-15T23:42:27.858Z,7.67
2019-02-15T23:44:56.296Z,6.83
2019-02-15T23:47:24.688Z,7.73
2019-02-15T23:49:53.080Z,7.00
2019-02-15T23:52:21.533Z,7.63
2019-02-15T23:54:49.930Z,7.10
2019-02-15T23:57:18.902Z,6.97
2019-02-15T23:59:47.478Z,7.40
